createdAt,value
2019-04-20T00:01:25.721Z,5.95
2019-04-20T00:02:25.359Z,5.85
2019-04-20T00:03:37.619Z,5.78
2019-04-20T00:04:37.405Z,5.58
2019-04-20T00:05:41.795Z,5.30
2019-04-20T00:06:50.957Z,5.97
2019-04-20T00:07:52.313Z,5.65
2019-04-20T00:08:59.929Z,6.33
2019-04-20T00:10:09.861Z,5.45
2019-04-20T00:11:17.270Z,5.92
2019-04-20T00:12:22.109Z,5.30
2019-04-20T00:13:33.112Z,6.45
2019-04-20T00:14:32.135Z,5.92
2019-04-20T00:15:34.737Z,6.30
2019-04-20T00:16:39.891Z,5.58
2019-04-20T00:17:50.847Z,6.00
2019-04-20T00:18:55.426Z,6.15
2019-04-20T00:19:58.993Z,5.45
2019-04-20T00:21:22.562Z,5.97
2019-04-20T00:22:44.262Z,7.03
2019-04-20T00:23:48.052Z,6.28
2019-04-20T00:25:38.639Z,6.60
2019-04-20T00:27:04.962Z,6.20
2019-04-20T00:28:16.115Z,6.42
2019-04-20T00:29:22.697Z,6.83
2019-04-20T00:30:32.443Z,6.60
2019-04-20T00:31:30.763Z,7.20
2019-04-20T00:32:42.580Z,6.75
2019-04-20T00:33:48.394Z,5.95
2019-04-20T00:34:41.688Z,5.75
2019-04-20T00:35:46.406Z,6.67
2019-04-20T00:36:51.957Z,6.78
2019-04-20T00:37:57.048Z,6.35
2019-04-20T00:39:05.757Z,6.28
2019-04-20T00:40:09.905Z,6.85
2019-04-20T00:41:17.759Z,6.67
2019-04-20T00:42:32.450Z,6.30
2019-04-20T00:43:32.294Z,6.22
2019-04-20T00:44:38.112Z,6.72
2019-04-20T00:45:46.891Z,5.95
2019-04-20T00:47:00.996Z,6.37
2019-04-20T00:47:59.565Z,6.40
2019-04-20T00:49:15.168Z,6.53
2019-04-20T00:50:25.693Z,5.97
2019-04-20T00:51:39.261Z,6.45
2019-04-20T00:52:31.198Z,6.28
2019-04-20T00:53:32.498Z,6.75
2019-04-20T00:54:30.425Z,6.58
2019-04-20T00:55:36.066Z,6.75
2019-04-20T00:56:41.310Z,6.20
2019-04-20T00:57:51.891Z,6.62
2019-04-20T00:59:06.155Z,5.95
2019-04-20T01:00:31.338Z,7.12
2019-04-20T01:01:43.668Z,6.40
2019-04-20T01:02:42.262Z,6.55
2019-04-20T01:03:52.034Z,6.47
2019-04-20T01:04:57.946Z,7.05
2019-04-20T01:06:36.627Z,7.30
2019-04-20T01:07:41.996Z,6.05
2019-04-20T01:08:55.059Z,6.90
2019-04-20T01:10:05.374Z,6.58
2019-04-20T01:11:10.265Z,6.50
2019-04-20T01:12:20.539Z,6.65
2019-04-20T01:13:23.885Z,6.80
2019-04-20T01:14:37.979Z,6.90
2019-04-20T01:15:43.796Z,7.53
2019-04-20T01:16:47.382Z,7.17
2019-04-20T01:17:46.159Z,6.83
2019-04-20T01:18:50.605Z,7.08
2019-04-20T01:19:55.012Z,7.17
2019-04-20T01:21:06.869Z,6.78
2019-04-20T01:22:13.602Z,6.93
2019-04-20T01:23:40.487Z,6.95
2019-04-20T01:25:06.603Z,7.78
2019-04-20T01:28:07.689Z,6.90
2019-04-20T01:29:29.466Z,6.80
2019-04-20T01:33:56.307Z,7.67
2019-04-20T01:38:54.742Z,7.55
2019-04-20T01:41:30.793Z,7.55
2019-04-20T01:44:35.375Z,6.70
2019-04-20T01:45:52.315Z,7.83
2019-04-20T01:47:08.280Z,7.37
2019-04-20T01:48:28.720Z,6.78
2019-04-20T01:49:41.905Z,7.83
2019-04-20T01:51:08.301Z,7.37
2019-04-20T01:52:23.381Z,7.77
2019-04-20T01:53:50.466Z,7.65
2019-04-20T01:55:33.673Z,7.30
2019-04-20T01:56:47.704Z,7.37
2019-04-20T01:59:54.287Z,7.00
2019-04-20T02:01:25.092Z,7.25
2019-04-20T02:04:46.061Z,8.30
2019-04-20T02:06:07.416Z,8.50
2019-04-20T02:07:18.407Z,7.55
2019-04-20T02:08:35.835Z,7.35
2019-04-20T02:09:58.262Z,7.70
2019-04-20T02:11:18.683Z,8.00
2019-04-20T02:12:33.837Z,7.37
2019-04-20T02:13:51.624Z,8.00
2019-04-20T02:15:06.110Z,7.80
2019-04-20T02:16:28.886Z,8.13
2019-04-20T02:17:48.116Z,7.80
2019-04-20T02:19:13.787Z,8.08
2019-04-20T02:20:40.153Z,8.20
2019-04-20T02:21:51.458Z,7.97
2019-04-20T02:23:08.941Z,7.70
2019-04-20T02:24:12.547Z,8.60
2019-04-20T02:25:29.060Z,8.45
2019-04-20T02:26:45.129Z,8.30
2019-04-20T02:28:20.363Z,8.37
2019-04-20T02:29:43.040Z,8.00
2019-04-20T02:31:15.115Z,7.53
2019-04-20T02:32:23.318Z,7.83
2019-04-20T02:33:47.471Z,7.60
2019-04-20T02:36:53.202Z,7.65
2019-04-20T02:39:40.680Z,7.60
2019-04-20T02:42:13.336Z,7.90
2019-04-20T02:46:22.552Z,8.10
2019-04-20T02:47:21.627Z,8.23
2019-04-20T02:48:45.893Z,8.05
2019-04-20T02:51:14.880Z,8.13
2019-04-20T02:54:02.241Z,7.93
2019-04-20T02:55:09.202Z,8.50
2019-04-20T02:56:31.685Z,8.40
2019-04-20T02:57:47.773Z,8.23
2019-04-20T02:59:31.545Z,7.90
2019-04-20T03:00:12.455Z,8.43
2019-04-20T03:01:29.436Z,8.55
2019-04-20T03:02:34.585Z,7.90
2019-04-20T03:03:46.947Z,7.50
2019-04-20T03:05:12.240Z,7.43
2019-04-20T03:06:26.343Z,7.73
2019-04-20T03:07:53.895Z,7.87
2019-04-20T03:09:15.282Z,8.37
2019-04-20T03:10:36.400Z,7.83
2019-04-20T03:11:58.287Z,7.93
2019-04-20T03:13:08.056Z,8.33
2019-04-20T03:14:21.878Z,8.73
2019-04-20T03:15:44.470Z,7.90
2019-04-20T03:17:01.464Z,7.93
2019-04-20T03:18:14.984Z,8.73
2019-04-20T03:19:28.827Z,7.93
2019-04-20T03:20:55.058Z,8.60
2019-04-20T03:22:13.679Z,8.75
2019-04-20T03:23:36.138Z,8.50
2019-04-20T03:24:51.392Z,8.47
2019-04-20T03:26:31.222Z,7.97
2019-04-20T03:27:41.033Z,7.97
2019-04-20T03:29:15.944Z,8.27
2019-04-20T03:31:25.086Z,8.53
2019-04-20T03:32:38.328Z,8.17
2019-04-20T03:33:51.470Z,8.07
2019-04-20T03:36:23.172Z,8.17
2019-04-20T03:37:34.721Z,8.87
2019-04-20T03:38:45.097Z,8.27
2019-04-20T03:39:59.250Z,8.70
2019-04-20T03:41:09.539Z,8.53
2019-04-20T03:42:16.495Z,8.45
2019-04-20T03:43:32.875Z,8.40
2019-04-20T03:44:56.531Z,8.60
2019-04-20T03:46:10.607Z,8.97
2019-04-20T03:47:35.875Z,8.43
2019-04-20T03:49:01.122Z,9.07
2019-04-20T03:50:26.066Z,9.30
2019-04-20T03:51:40.228Z,8.73
2019-04-20T03:56:02.209Z,9.10
2019-04-20T03:59:11.621Z,8.73
2019-04-20T04:04:27.433Z,8.77
2019-04-20T04:05:46.898Z,8.37
2019-04-20T04:06:55.907Z,9.50
2019-04-20T04:08:19.189Z,9.40
2019-04-20T04:09:37.038Z,8.30
2019-04-20T04:11:04.801Z,8.53
2019-04-20T04:12:12.227Z,9.23
2019-04-20T04:13:20.933Z,9.73
2019-04-20T04:14:37.114Z,8.70
2019-04-20T04:15:59.333Z,9.20
2019-04-20T04:17:13.287Z,8.70
2019-04-20T04:18:35.327Z,9.07
2019-04-20T04:19:54.782Z,9.13
2019-04-20T04:21:10.000Z,8.60
2019-04-20T04:22:41.980Z,9.20
2019-04-20T04:23:56.123Z,9.10
2019-04-20T04:25:12.844Z,8.40
2019-04-20T04:26:32.302Z,9.43
2019-04-20T04:27:56.092Z,9.10
2019-04-20T04:29:18.106Z,9.27
2019-04-20T04:30:26.342Z,9.23
2019-04-20T04:31:59.450Z,9.57
2019-04-20T04:33:37.882Z,9.17
2019-04-20T04:34:22.980Z,9.00
2019-04-20T04:35:32.356Z,8.97
2019-04-20T04:37:01.949Z,8.77
2019-04-20T04:38:23.964Z,9.00
2019-04-20T04:39:36.954Z,8.97
2019-04-20T04:41:06.564Z,8.93
2019-04-20T04:42:16.710Z,9.33
2019-04-20T04:43:35.942Z,9.03
2019-04-20T04:44:39.978Z,8.60
2019-04-20T04:45:46.971Z,9.00
2019-04-20T04:47:06.408Z,9.40
2019-04-20T04:48:27.634Z,8.40
2019-04-20T04:49:41.274Z,9.07
2019-04-20T04:51:02.425Z,9.73
2019-04-20T04:52:19.214Z,8.60
2019-04-20T04:53:45.230Z,8.13
2019-04-20T04:54:56.612Z,8.37
2019-04-20T04:56:13.183Z,8.77
2019-04-20T04:57:26.351Z,8.60
2019-04-20T04:58:42.627Z,7.97
2019-04-20T04:59:59.443Z,8.60
2019-04-20T05:01:20.601Z,7.80
2019-04-20T05:02:38.039Z,8.48
2019-04-20T05:04:17.481Z,8.65
2019-04-20T05:05:49.376Z,8.70
2019-04-20T05:06:59.743Z,8.58
2019-04-20T05:08:12.783Z,8.35
2019-04-20T05:09:23.784Z,8.93
2019-04-20T05:10:41.528Z,8.08
2019-04-20T05:12:05.368Z,8.85
2019-04-20T05:13:15.791Z,9.20
2019-04-20T05:14:41.826Z,8.60
2019-04-20T05:16:06.547Z,8.98
2019-04-20T05:17:20.706Z,8.88
2019-04-20T05:18:51.442Z,8.68
2019-04-20T05:20:03.632Z,8.33
2019-04-20T05:21:26.094Z,9.75
2019-04-20T05:22:46.692Z,8.45
2019-04-20T05:24:07.299Z,9.38
2019-04-20T05:25:52.003Z,9.63
2019-04-20T05:27:30.067Z,9.18
2019-04-20T05:28:39.754Z,9.60
2019-04-20T05:29:44.694Z,9.58
2019-04-20T05:31:03.565Z,9.10
2019-04-20T05:32:33.750Z,10.30
2019-04-20T05:34:03.448Z,9.85
2019-04-20T05:35:16.408Z,8.83
2019-04-20T05:36:38.445Z,9.18
2019-04-20T05:39:18.557Z,9.85
2019-04-20T05:40:29.254Z,8.75
2019-04-20T05:41:44.079Z,9.63
2019-04-20T05:44:49.897Z,9.35
2019-04-20T05:46:08.679Z,9.90
2019-04-20T05:47:24.045Z,9.70
2019-04-20T05:48:45.880Z,9.15
2019-04-20T05:49:54.550Z,8.90
2019-04-20T05:51:26.917Z,9.53
2019-04-20T05:52:42.881Z,9.78
2019-04-20T05:53:54.793Z,8.90
2019-04-20T05:55:09.923Z,9.30
2019-04-20T05:56:30.700Z,9.30
2019-04-20T05:57:50.456Z,9.65
2019-04-20T05:58:59.613Z,9.10
2019-04-20T06:00:32.077Z,9.40
2019-04-20T06:01:47.813Z,8.70
2019-04-20T06:02:54.881Z,8.43
2019-04-20T06:04:17.418Z,9.40
2019-04-20T06:05:36.726Z,8.75
2019-04-20T06:06:55.402Z,9.25
2019-04-20T06:08:20.462Z,9.03
2019-04-20T06:09:28.559Z,9.03
2019-04-20T06:10:45.190Z,8.60
2019-04-20T06:12:15.749Z,9.13
2019-04-20T06:13:40.707Z,8.45
2019-04-20T06:15:17.550Z,9.20
2019-04-20T06:19:53.162Z,8.53
2019-04-20T06:21:17.251Z,8.63
2019-04-20T06:22:59.943Z,8.55
2019-04-20T06:26:11.037Z,8.45
2019-04-20T06:27:09.117Z,8.50
2019-04-20T06:28:24.565Z,8.70
2019-04-20T06:29:48.366Z,7.78
2019-04-20T06:30:59.533Z,8.98
2019-04-20T06:32:29.597Z,8.45
2019-04-20T06:33:53.341Z,9.15
2019-04-20T06:34:53.548Z,8.73
2019-04-20T06:36:23.204Z,8.25
2019-04-20T06:37:39.180Z,8.43
2019-04-20T06:39:00.519Z,8.35
2019-04-20T06:40:23.962Z,8.85
2019-04-20T06:41:32.532Z,9.03
2019-04-20T06:42:51.995Z,8.25
2019-04-20T06:44:28.957Z,8.65
2019-04-20T06:45:46.031Z,8.63
2019-04-20T06:47:04.132Z,7.70
2019-04-20T06:48:21.674Z,8.73
2019-04-20T06:49:33.419Z,9.08
2019-04-20T06:53:01.560Z,8.28
2019-04-20T06:54:44.861Z,8.40
2019-04-20T06:57:52.902Z,8.45
2019-04-20T06:59:19.868Z,8.28
2019-04-20T07:00:43.961Z,8.45
2019-04-20T07:02:11.714Z,8.38
2019-04-20T07:03:46.413Z,8.80
2019-04-20T07:05:00.234Z,8.90
2019-04-20T07:06:35.317Z,8.65
2019-04-20T07:07:48.055Z,7.90
2019-04-20T07:09:19.994Z,8.40
2019-04-20T07:10:39.484Z,7.80
2019-04-20T07:11:58.092Z,8.78
2019-04-20T07:13:17.795Z,8.23
2019-04-20T07:16:37.948Z,7.87
2019-04-20T07:18:08.117Z,8.15
2019-04-20T07:19:15.329Z,8.25
2019-04-20T07:20:55.368Z,8.10
2019-04-20T07:24:04.696Z,7.80
2019-04-20T07:25:02.361Z,7.92
2019-04-20T07:26:12.853Z,7.87
2019-04-20T07:27:12.259Z,8.18
2019-04-20T07:28:24.500Z,8.70
2019-04-20T07:29:25.994Z,7.90
2019-04-20T07:30:30.887Z,7.80
2019-04-20T07:31:36.805Z,8.30
2019-04-20T07:32:48.391Z,7.80
2019-04-20T07:33:52.481Z,8.80
2019-04-20T07:34:56.792Z,8.73
2019-04-20T07:36:04.192Z,8.58
2019-04-20T07:37:40.768Z,8.13
2019-04-20T07:38:31.211Z,8.28
2019-04-20T07:39:34.997Z,8.43
2019-04-20T07:40:35.518Z,7.78
2019-04-20T07:41:47.864Z,8.30
2019-04-20T07:42:51.835Z,8.20
2019-04-20T07:44:03.522Z,8.30
2019-04-20T07:45:08.362Z,8.05
2019-04-20T07:46:10.251Z,7.58
2019-04-20T07:47:13.778Z,8.08
2019-04-20T07:48:30.490Z,7.75
2019-04-20T07:49:25.889Z,7.53
2019-04-20T07:50:25.111Z,7.67
2019-04-20T07:51:23.112Z,8.23
2019-04-20T07:52:33.823Z,7.62
2019-04-20T07:53:50.281Z,8.00
2019-04-20T07:55:18.829Z,8.13
2019-04-20T07:56:04.690Z,7.17
2019-04-20T07:57:11.496Z,7.95
2019-04-20T07:58:09.847Z,8.90
2019-04-20T07:59:14.032Z,8.60
2019-04-20T08:00:44.966Z,9.25
2019-04-20T08:01:56.130Z,8.05
2019-04-20T08:03:12.952Z,8.13
2019-04-20T08:04:22.730Z,8.25
2019-04-20T08:05:30.931Z,7.62
2019-04-20T08:06:37.920Z,8.63
2019-04-20T08:07:46.438Z,8.55
2019-04-20T08:08:59.293Z,8.60
2019-04-20T08:09:55.586Z,8.58
2019-04-20T08:11:17.937Z,8.45
2019-04-20T08:12:26.917Z,8.73
2019-04-20T08:14:39.944Z,8.03
2019-04-20T08:15:49.214Z,8.80
2019-04-20T08:17:08.277Z,8.63
2019-04-20T08:18:06.372Z,8.73
2019-04-20T08:18:58.579Z,9.33
2019-04-20T08:20:05.717Z,8.95
2019-04-20T08:21:16.713Z,8.30
2019-04-20T08:22:24.578Z,8.10
2019-04-20T08:23:28.592Z,9.38
2019-04-20T08:24:28.810Z,9.58
2019-04-20T08:25:34.931Z,8.35
2019-04-20T08:26:30.434Z,8.58
2019-04-20T08:27:48.774Z,8.55
2019-04-20T08:29:02.504Z,8.45
2019-04-20T08:30:32.237Z,7.87
2019-04-20T08:31:55.776Z,8.38
2019-04-20T08:32:58.529Z,8.55
2019-04-20T08:34:24.723Z,8.35
2019-04-20T08:35:25.964Z,7.97
2019-04-20T08:36:33.162Z,9.18
2019-04-20T08:37:32.086Z,8.65
2019-04-20T08:39:57.193Z,8.40
2019-04-20T08:40:53.943Z,9.33
2019-04-20T08:42:03.783Z,9.03
2019-04-20T08:44:38.077Z,9.13
2019-04-20T08:45:26.630Z,8.50
2019-04-20T08:46:25.944Z,8.33
2019-04-20T08:47:37.928Z,8.93
2019-04-20T08:48:43.423Z,8.50
2019-04-20T08:50:09.437Z,8.68
2019-04-20T08:51:07.253Z,9.40
2019-04-20T08:52:41.250Z,9.13
2019-04-20T08:53:25.976Z,8.90
2019-04-20T08:54:26.158Z,8.83
2019-04-20T08:55:33.487Z,10.08
2019-04-20T08:56:35.162Z,9.73
2019-04-20T08:57:29.295Z,10.05
2019-04-20T08:58:36.235Z,9.18
2019-04-20T08:59:44.377Z,8.93
2019-04-20T09:00:53.663Z,8.63
2019-04-20T09:01:53.505Z,9.18
2019-04-20T09:03:06.235Z,8.90
2019-04-20T09:04:12.739Z,8.83
2019-04-20T09:05:28.212Z,9.55
2019-04-20T09:06:33.628Z,9.33
2019-04-20T09:07:54.162Z,8.65
2019-04-20T09:09:09.684Z,8.83
2019-04-20T09:10:16.446Z,8.85
2019-04-20T09:11:19.655Z,9.65
2019-04-20T09:12:24.320Z,8.70
2019-04-20T09:13:25.969Z,9.40
2019-04-20T09:14:22.100Z,10.10
2019-04-20T09:15:27.802Z,9.75
2019-04-20T09:16:42.399Z,9.43
2019-04-20T09:17:48.452Z,10.20
2019-04-20T09:18:55.544Z,8.98
2019-04-20T09:20:04.155Z,9.05
2019-04-20T09:21:09.778Z,9.60
2019-04-20T09:22:34.205Z,9.43
2019-04-20T09:24:14.932Z,9.83
2019-04-20T09:25:35.285Z,9.13
2019-04-20T09:26:20.494Z,9.43
2019-04-20T09:27:22.821Z,9.63
2019-04-20T09:28:40.523Z,9.00
2019-04-20T09:29:54.635Z,8.83
2019-04-20T09:30:57.189Z,9.15
2019-04-20T09:32:16.975Z,9.43
2019-04-20T09:33:40.189Z,8.75
2019-04-20T09:34:47.840Z,8.78
2019-04-20T09:35:49.573Z,9.35
2019-04-20T09:37:29.394Z,10.13
2019-04-20T09:38:30.506Z,9.03
2019-04-20T09:40:00.929Z,9.90
2019-04-20T09:41:01.306Z,9.70
2019-04-20T09:42:25.057Z,8.68
2019-04-20T09:43:34.743Z,9.15
2019-04-20T09:44:42.875Z,9.25
2019-04-20T09:45:51.337Z,8.83
2019-04-20T09:46:56.746Z,10.15
2019-04-20T09:48:06.770Z,9.25
2019-04-20T09:49:18.662Z,9.03
2019-04-20T09:50:33.391Z,9.28
2019-04-20T09:51:40.077Z,8.35
2019-04-20T09:52:45.690Z,9.43
2019-04-20T09:53:42.929Z,9.55
2019-04-20T09:54:55.197Z,9.73
2019-04-20T09:56:01.919Z,9.15
2019-04-20T09:57:09.356Z,9.13
2019-04-20T09:58:12.563Z,9.00
2019-04-20T09:59:24.940Z,8.20
2019-04-20T10:00:29.149Z,8.88
2019-04-20T10:01:30.345Z,8.38
2019-04-20T10:02:30.981Z,8.10
2019-04-20T10:03:31.186Z,8.65
2019-04-20T10:04:35.664Z,8.25
2019-04-20T10:05:41.204Z,8.85
2019-04-20T10:06:45.734Z,8.10
2019-04-20T10:07:56.032Z,7.92
2019-04-20T10:09:00.423Z,8.23
2019-04-20T10:10:15.965Z,7.80
2019-04-20T10:11:09.855Z,8.85
2019-04-20T10:12:15.585Z,8.38
2019-04-20T10:13:21.465Z,8.73
2019-04-20T10:14:26.927Z,8.13
2019-04-20T10:15:32.948Z,8.18
2019-04-20T10:16:37.875Z,8.45
2019-04-20T10:17:43.572Z,7.90
2019-04-20T10:18:51.839Z,8.15
2019-04-20T10:19:55.576Z,8.15
2019-04-20T10:21:00.085Z,7.70
2019-04-20T10:22:04.713Z,8.28
2019-04-20T10:23:09.403Z,7.87
2019-04-20T10:24:14.647Z,7.87
2019-04-20T10:25:20.458Z,7.50
2019-04-20T10:26:25.070Z,7.55
2019-04-20T10:27:30.672Z,7.78
2019-04-20T10:28:35.179Z,7.45
2019-04-20T10:29:39.796Z,6.62
2019-04-20T10:30:44.469Z,7.80
2019-04-20T10:31:55.013Z,7.58
2019-04-20T10:32:55.747Z,7.35
2019-04-20T10:34:01.684Z,7.05
2019-04-20T10:35:06.646Z,7.65
2019-04-20T10:36:21.973Z,6.78
2019-04-20T10:37:31.546Z,7.60
2019-04-20T10:38:37.690Z,8.05
2019-04-20T10:39:42.840Z,7.62
2019-04-20T10:40:57.234Z,6.70
2019-04-20T10:41:57.635Z,7.50
2019-04-20T10:43:01.128Z,6.97
2019-04-20T10:44:07.043Z,7.62
2019-04-20T10:45:12.738Z,7.35
2019-04-20T10:46:17.394Z,6.87
2019-04-20T10:47:22.993Z,7.30
2019-04-20T10:48:33.969Z,7.30
2019-04-20T10:49:33.757Z,7.28
2019-04-20T10:50:38.948Z,7.25
2019-04-20T10:51:43.980Z,7.22
2019-04-20T10:52:49.997Z,6.92
2019-04-20T10:53:54.646Z,7.47
2019-04-20T10:54:59.033Z,7.15
2019-04-20T10:56:03.534Z,6.90
2019-04-20T10:57:07.969Z,6.83
2019-04-20T10:58:13.641Z,6.10
2019-04-20T10:59:19.372Z,6.67
2019-04-20T11:00:39.716Z,7.08
2019-04-20T11:01:45.566Z,6.62
2019-04-20T11:02:51.297Z,6.62
2019-04-20T11:03:56.586Z,7.03
2019-04-20T11:05:02.451Z,8.15
2019-04-20T11:06:07.135Z,6.35
2019-04-20T11:07:12.504Z,6.42
2019-04-20T11:08:17.117Z,6.80
2019-04-20T11:09:22.678Z,7.20
2019-04-20T11:10:30.262Z,7.17
2019-04-20T11:11:34.208Z,6.97
2019-04-20T11:12:42.232Z,6.92
2019-04-20T11:13:47.924Z,6.92
2019-04-20T11:14:52.401Z,7.10
2019-04-20T11:15:57.007Z,6.78
2019-04-20T11:17:02.620Z,6.85
2019-04-20T11:18:07.251Z,6.65
2019-04-20T11:19:11.729Z,7.20
2019-04-20T11:20:19.065Z,6.75
2019-04-20T11:21:24.706Z,6.50
2019-04-20T11:22:30.552Z,6.50
2019-04-20T11:23:36.238Z,7.25
2019-04-20T11:24:40.780Z,7.25
2019-04-20T11:25:46.409Z,7.65
2019-04-20T11:26:52.119Z,7.92
2019-04-20T11:27:58.558Z,7.25
2019-04-20T11:29:04.209Z,7.53
2019-04-20T11:30:10.112Z,8.08
2019-04-20T11:31:14.516Z,8.18
2019-04-20T11:32:20.240Z,8.33
2019-04-20T11:33:24.864Z,7.47
2019-04-20T11:34:33.298Z,7.00
2019-04-20T11:35:38.079Z,7.62
2019-04-20T11:36:41.421Z,7.70
2019-04-20T11:37:46.842Z,6.53
2019-04-20T11:38:53.058Z,7.05
2019-04-20T11:39:59.075Z,7.85
2019-04-20T11:41:11.181Z,7.30
2019-04-20T11:42:09.967Z,8.88
2019-04-20T11:43:15.627Z,7.60
2019-04-20T11:44:21.339Z,8.15
2019-04-20T11:45:26.736Z,7.97
2019-04-20T11:46:32.358Z,7.67
2019-04-20T11:47:37.701Z,7.47
2019-04-20T11:48:43.276Z,7.35
2019-04-20T11:49:49.236Z,7.33
2019-04-20T11:50:54.013Z,6.97
2019-04-20T11:51:59.487Z,7.55
2019-04-20T11:53:04.019Z,6.85
2019-04-20T11:54:08.463Z,6.80
2019-04-20T11:55:13.194Z,6.62
2019-04-20T11:56:21.239Z,6.83
2019-04-20T11:57:25.046Z,6.92
2019-04-20T11:58:30.362Z,7.37
2019-04-20T11:59:34.993Z,7.20
2019-04-20T12:00:53.822Z,7.08
2019-04-20T12:02:02.373Z,6.65
2019-04-20T12:03:41.370Z,6.30
2019-04-20T12:04:47.116Z,6.65
2019-04-20T12:05:52.970Z,7.05
2019-04-20T12:07:13.040Z,6.92
2019-04-20T12:08:18.666Z,7.17
2019-04-20T12:09:23.099Z,6.67
2019-04-20T12:10:28.355Z,6.53
2019-04-20T12:11:52.728Z,6.97
2019-04-20T12:12:44.379Z,6.85
2019-04-20T12:13:46.833Z,6.33
2019-04-20T12:14:52.496Z,6.47
2019-04-20T12:15:57.066Z,7.03
2019-04-20T12:17:03.794Z,7.17
2019-04-20T12:18:09.584Z,6.67
2019-04-20T12:19:14.718Z,6.90
2019-04-20T12:20:20.848Z,6.45
2019-04-20T12:21:26.469Z,6.65
2019-04-20T12:22:32.349Z,6.42
2019-04-20T12:23:38.157Z,6.53
2019-04-20T12:24:42.646Z,6.58
2019-04-20T12:25:48.080Z,7.67
2019-04-20T12:26:52.701Z,7.80
2019-04-20T12:28:00.590Z,6.95
2019-04-20T12:29:05.694Z,7.42
2019-04-20T12:30:12.319Z,7.20
2019-04-20T12:31:20.487Z,7.42
2019-04-20T12:32:22.856Z,6.75
2019-04-20T12:33:30.552Z,7.00
2019-04-20T12:34:35.281Z,6.95
2019-04-20T12:35:40.333Z,7.17
2019-04-20T12:36:46.951Z,7.60
2019-04-20T12:37:51.588Z,6.83
2019-04-20T12:38:57.211Z,7.25
2019-04-20T12:40:03.079Z,6.65
2019-04-20T12:41:11.486Z,6.58
2019-04-20T12:42:16.905Z,6.45
2019-04-20T12:43:21.618Z,6.50
2019-04-20T12:44:25.956Z,6.35
2019-04-20T12:45:31.571Z,6.78
2019-04-20T12:46:36.128Z,6.33
2019-04-20T12:47:41.507Z,6.87
2019-04-20T12:49:11.830Z,6.08
2019-04-20T12:50:19.260Z,7.20
2019-04-20T12:51:31.352Z,7.25
2019-04-20T12:52:32.336Z,6.62
2019-04-20T12:53:38.260Z,6.95
2019-04-20T12:54:44.559Z,7.25
2019-04-20T12:55:48.940Z,6.60
2019-04-20T12:56:53.410Z,6.78
2019-04-20T12:57:58.625Z,6.12
2019-04-20T12:59:05.517Z,6.75
2019-04-20T13:00:11.919Z,7.28
2019-04-20T13:01:19.338Z,6.25
2019-04-20T13:02:23.188Z,6.17
2019-04-20T13:03:27.710Z,6.87
2019-04-20T13:04:33.228Z,7.00
2019-04-20T13:05:38.169Z,6.58
2019-04-20T13:06:42.965Z,6.35
2019-04-20T13:07:54.523Z,6.40
2019-04-20T13:08:57.467Z,6.45
2019-04-20T13:10:03.542Z,6.60
2019-04-20T13:11:27.095Z,6.03
2019-04-20T13:12:42.476Z,6.70
2019-04-20T13:14:12.419Z,6.60
2019-04-20T13:15:36.426Z,6.37
2019-04-20T13:16:40.948Z,6.58
2019-04-20T13:17:47.980Z,6.30
2019-04-20T13:18:57.234Z,7.03
2019-04-20T13:20:03.742Z,6.87
2019-04-20T13:21:07.293Z,6.62
2019-04-20T13:22:12.925Z,6.45
2019-04-20T13:23:17.378Z,6.80
2019-04-20T13:25:48.756Z,6.40
2019-04-20T13:27:13.220Z,6.78
2019-04-20T13:32:03.347Z,6.72
2019-04-20T13:35:10.030Z,5.95
2019-04-20T13:38:18.261Z,6.45
2019-04-20T13:41:24.531Z,6.17
2019-04-20T13:45:46.764Z,7.22
2019-04-20T13:47:10.707Z,6.50
2019-04-20T13:50:12.395Z,6.42
2019-04-20T13:51:28.724Z,6.95
2019-04-20T13:52:44.769Z,6.67
2019-04-20T13:54:01.785Z,6.28
2019-04-20T13:55:18.809Z,6.25
2019-04-20T13:56:35.446Z,6.87
2019-04-20T13:59:54.068Z,6.58
2019-04-20T14:01:28.930Z,7.30
2019-04-20T14:02:51.033Z,9.55
2019-04-20T14:04:12.759Z,7.42
2019-04-20T14:05:33.208Z,6.30
2019-04-20T14:06:49.287Z,7.03
2019-04-20T14:08:05.436Z,7.47
2019-04-20T14:09:21.612Z,6.33
2019-04-20T14:10:37.711Z,6.37
2019-04-20T14:11:54.363Z,6.62
2019-04-20T14:13:15.659Z,6.62
2019-04-20T14:14:28.995Z,6.97
2019-04-20T14:15:45.084Z,6.92
2019-04-20T14:17:01.193Z,6.72
2019-04-20T14:18:17.374Z,7.08
2019-04-20T14:19:34.813Z,6.53
2019-04-20T14:20:52.069Z,6.80
2019-04-20T14:22:08.670Z,6.92
2019-04-20T14:23:25.239Z,6.58
2019-04-20T14:24:42.694Z,7.28
2019-04-20T14:25:58.925Z,7.45
2019-04-20T14:27:15.274Z,6.92
2019-04-20T14:28:31.533Z,6.95
2019-04-20T14:29:48.712Z,6.67
2019-04-20T14:31:05.804Z,6.92
2019-04-20T14:32:22.883Z,6.78
2019-04-20T14:33:41.320Z,6.95
2019-04-20T14:34:57.054Z,6.42
2019-04-20T14:36:13.042Z,6.28
2019-04-20T14:37:29.034Z,6.85
2019-04-20T14:38:45.421Z,6.95
2019-04-20T14:40:04.088Z,7.10
2019-04-20T14:41:20.723Z,6.60
2019-04-20T14:42:44.552Z,6.80
2019-04-20T14:43:55.245Z,6.72
2019-04-20T14:45:11.862Z,6.60
2019-04-20T14:46:29.478Z,6.40
2019-04-20T14:47:45.842Z,6.62
2019-04-20T14:49:02.896Z,6.67
2019-04-20T14:50:20.095Z,6.65
2019-04-20T14:51:37.507Z,7.17
2019-04-20T14:52:53.741Z,6.40
2019-04-20T14:54:09.706Z,6.53
2019-04-20T14:55:25.855Z,6.22
2019-04-20T14:56:41.646Z,6.65
2019-04-20T14:57:59.942Z,7.65
2019-04-20T14:59:37.835Z,7.33
2019-04-20T15:01:00.473Z,6.83
2019-04-20T15:02:19.461Z,7.65
2019-04-20T15:03:38.720Z,7.05
2019-04-20T15:04:55.062Z,7.17
2019-04-20T15:06:11.788Z,7.33
2019-04-20T15:07:28.830Z,7.03
2019-04-20T15:08:45.018Z,7.05
2019-04-20T15:10:00.921Z,6.83
2019-04-20T15:13:06.012Z,7.10
2019-04-20T15:14:22.802Z,7.72
2019-04-20T15:15:39.333Z,7.58
2019-04-20T15:16:56.345Z,7.40
2019-04-20T15:18:13.445Z,7.10
2019-04-20T15:19:49.489Z,6.65
2019-04-20T15:21:07.620Z,7.28
2019-04-20T15:23:57.697Z,7.12
2019-04-20T15:25:13.746Z,7.22
2019-04-20T15:26:30.624Z,7.22
2019-04-20T15:27:46.446Z,6.83
2019-04-20T15:29:02.357Z,7.80
2019-04-20T15:30:18.543Z,6.62
2019-04-20T15:31:36.310Z,6.65
2019-04-20T15:32:52.248Z,7.10
2019-04-20T15:35:58.308Z,7.08
2019-04-20T15:37:23.324Z,7.35
2019-04-20T15:38:47.290Z,6.35
2019-04-20T15:41:54.897Z,7.12
2019-04-20T15:44:47.395Z,6.92
2019-04-20T15:46:10.843Z,6.65
2019-04-20T15:49:17.902Z,7.20
2019-04-20T15:50:35.895Z,6.90
2019-04-20T15:51:52.140Z,7.65
2019-04-20T15:53:08.742Z,7.42
2019-04-20T15:54:25.454Z,7.47
2019-04-20T15:55:46.717Z,7.28
2019-04-20T15:57:08.378Z,6.40
2019-04-20T15:58:20.666Z,6.78
2019-04-20T15:59:38.169Z,6.22
2019-04-20T16:00:54.774Z,6.40
2019-04-20T16:05:37.686Z,6.45
2019-04-20T16:06:54.939Z,6.20
2019-04-20T16:08:30.314Z,6.80
2019-04-20T16:09:46.365Z,7.40
2019-04-20T16:11:04.612Z,6.17
2019-04-20T16:12:20.705Z,6.55
2019-04-20T16:13:40.336Z,6.55
2019-04-20T16:14:55.505Z,7.03
2019-04-20T16:16:12.112Z,7.28
2019-04-20T16:17:32.698Z,6.90
2019-04-20T16:18:46.641Z,6.60
2019-04-20T16:20:10.522Z,6.97
2019-04-20T16:21:24.944Z,7.08
2019-04-20T16:22:40.533Z,6.70
2019-04-20T16:24:01.138Z,6.70
2019-04-20T16:25:35.710Z,7.05
2019-04-20T16:27:11.636Z,6.62
2019-04-20T16:28:27.927Z,6.97
2019-04-20T16:29:44.353Z,6.05
2019-04-20T16:31:01.501Z,6.50
2019-04-20T16:32:18.821Z,6.55
2019-04-20T16:33:34.606Z,6.80
2019-04-20T16:34:50.725Z,5.97
2019-04-20T16:36:06.624Z,6.83
2019-04-20T16:37:22.504Z,5.97
2019-04-20T16:38:40.190Z,5.95
2019-04-20T16:39:57.053Z,6.25
2019-04-20T16:41:12.734Z,5.87
2019-04-20T16:42:29.934Z,7.00
2019-04-20T16:43:47.872Z,5.80
2019-04-20T16:45:05.347Z,5.53
2019-04-20T16:46:23.647Z,5.80
2019-04-20T16:47:39.811Z,6.47
2019-04-20T16:48:56.904Z,6.17
2019-04-20T16:50:13.334Z,6.15
2019-04-20T16:51:29.366Z,6.28
2019-04-20T16:52:46.493Z,6.55
2019-04-20T16:54:01.596Z,5.80
2019-04-20T16:57:10.631Z,5.28
2019-04-20T17:00:15.620Z,5.22
2019-04-20T17:01:40.691Z,5.87
2019-04-20T17:03:06.934Z,5.83
2019-04-20T17:04:32.113Z,5.85
2019-04-20T17:05:56.016Z,6.55
2019-04-20T17:07:39.295Z,5.87
2019-04-20T17:10:48.834Z,5.15
2019-04-20T17:12:13.112Z,5.33
2019-04-20T17:13:42.202Z,5.25
2019-04-20T17:15:01.641Z,5.30
2019-04-20T17:16:25.914Z,5.42
2019-04-20T17:19:35.427Z,5.60
2019-04-20T17:21:04.460Z,5.80
2019-04-20T17:23:53.805Z,4.47
2019-04-20T17:25:17.368Z,5.22
2019-04-20T17:27:01.181Z,4.60
2019-04-20T17:28:44.837Z,4.95
2019-04-20T17:30:27.852Z,5.58
2019-04-20T17:32:11.582Z,5.85
2019-04-20T17:35:20.656Z,5.10
2019-04-20T17:36:40.169Z,5.25
2019-04-20T17:37:56.419Z,4.83
2019-04-20T17:39:25.199Z,4.92
2019-04-20T17:40:51.198Z,5.47
2019-04-20T17:42:04.795Z,5.25
2019-04-20T17:43:17.992Z,4.95
2019-04-20T17:44:41.358Z,4.53
2019-04-20T17:45:53.679Z,4.60
2019-04-20T17:47:21.659Z,4.53
2019-04-20T17:48:31.565Z,7.03
2019-04-20T17:49:57.625Z,4.97
2019-04-20T17:51:17.741Z,4.55
2019-04-20T17:52:33.940Z,4.70
2019-04-20T17:53:57.708Z,5.12
2019-04-20T17:55:25.582Z,4.78
2019-04-20T17:56:38.399Z,4.85
2019-04-20T17:57:55.230Z,4.90